Dupont, Ohio
Current Conditions -  °F | °C
As of 9:53 AM on Wednesday 26 Nov 2014 (Local Time) from KAOH Reporting Station
Overcast Overcast  
Wind Chill: 24°   Ceiling: 1600
Heat Index: 30°   Visibility: 10mi
Dew Point: 21°   Wind: 6mph
Humidity: 69%   Direction: 110°ESE
Pressure: 30.14"   Gusts: NA
Location:  41.06°N, 84.3°W
Report Text: KAOH 261453Z AUTO 11005KT 10SM OVC016 M01/M06 A3014 RMK AO2 SLP217 T10111061 52002
Loading
Personal Weather Stations






























Interactive Weather Map New forecast layout! Learn more

10-Day Weather Forecast

Advertisements
Track Severe Weather on mobile